Terminal Aerodrome Forecast
Issued by NWS

Home | Current Version | Previous Version | Text Only | Print | Product List | Glossary On
Versions: 1 2 3 4 5 6 7 8 9 10 11 12 13 14 15 16 17 18 19
000
FTUS45 KRIW 200533
TAFBPI
TAF
KBPI 200533Z 2006/2106 14008KT P6SM -SN SCT015 BKN040
      TEMPO 2006/2009 BKN015
     FM201100 VRB05KT P6SM BKN040
     FM201600 VRB04KT P6SM SCT040
     FM202100 VRB05KT P6SM VCSH BKN040
     FM210200 35005KT P6SM SCT050=

USA.gov is the U.S. government's official web portal to all federal, state and local government web resources and services.